Terminal Aerodrome Forecast
Issued by NWS Lake Charles, LA

Home | Current Version | Previous Version | Text Only | Print | Product List | Glossary On
Versions: 1 2 3 4 5 6 7 8 9 10 11 12 13 14 15 16
316
FTUS44 KLCH 272359 AAA
TAFBPT
TAF AMD
KBPT 272359Z 2700/2724 20009KT 6SM HZ VCTS BKN015 OVC025CB
      TEMPO 2701/2703 3SM TSRA BKN008 OVC015CB
     FM270300 30016G26KT P6SM OVC035
     FM270600 33012KT P6SM FEW250
     FM271200 01008KT P6SM SKC
     FM271500 05010KT P6SM SKC
     FM271800 10010KT P6SM SKC
     FM272100 15008KT P6SM SKC=

USA.gov is the U.S. government's official web portal to all federal, state and local government web resources and services.